Date,TemperatureHighF,TemperatureAvgF,TemperatureLowF,DewpointHighF,DewpointAvgF,DewpointLowF,HumidityHigh,HumidityAvg,HumidityLow,PressureMaxIn,PressureMinIn,WindSpeedMaxMPH,WindSpeedAvgMPH,GustSpeedMaxMPH,PrecipitationSumIn
2013-2-1,41.2,26.5,16.7,33.0,15.1,3.8,98,63,38,30.06,29.67,21,7,29,0.00
2013-2-2,42.1,27.6,15.8,33.8,22.5,12.8,99,82,51,30.04,29.77,10,2,12,0.00
2013-2-3,41.7,35.3,31.1,34.4,28.4,24.9,99,77,61,29.77,29.67,23,6,26,0.07
2013-2-4,34.2,34.2,34.2,25.1,25.1,25.1,69,69,69,29.77,29.77,4,4,23,0.07
2013-2-5,34.2,34.2,34.2,25.1,25.1,25.1,69,69,69,29.77,29.77,4,4,23,0.07
2013-2-6,34.2,34.2,34.2,25.1,25.1,25.1,69,69,69,29.77,29.77,4,4,23,0.07
2013-2-7,43.3,35.9,34.2,43.1,28.5,25.1,99,75,69,29.81,29.75,9,3,23,0.41
2013-2-8,51.8,42.1,33.6,48.0,39.0,28.7,99,89,65,29.94,29.68,17,4,22,0.05
2013-2-9,57.0,38.3,25.3,31.3,26.8,23.1,98,67,28,30.05,29.92,9,3,14,0.00
2013-2-10,52.5,41.5,30.4,44.9,32.4,24.3,99,74,35,30.09,29.84,26,5,26,0.41
2013-2-11,56.5,47.2,39.2,55.9,45.6,30.9,99,95,58,29.86,29.78,9,2,9,0.02
2013-2-12,52.3,44.0,35.4,41.3,33.5,26.3,99,69,43,29.91,29.69,11,3,11,0.13
2013-2-13,54.1,40.8,36.1,48.3,39.0,32.3,99,94,72,29.68,29.42,14,4,22,0.08
2013-2-14,55.0,40.4,30.2,36.7,32.1,28.8,97,74,48,29.80,29.68,15,4,15,0.00
2013-2-15,55.6,39.2,26.4,40.2,33.5,26.2,99,83,45,29.85,29.72,16,3,17,0.02
2013-2-16,33.4,29.4,22.6,30.8,22.9,11.3,93,77,55,29.79,29.64,18,6,27,0.00
2013-2-17,35.1,25.6,19.8,14.9,11.0,7.4,74,54,37,29.96,29.73,27,9,30,0.00
2013-2-18,54.5,35.7,18.3,30.8,22.6,14.0,93,62,38,30.05,29.85,12,3,14,0.00
2013-2-19,54.1,41.4,34.0,45.4,29.3,13.8,99,66,34,29.85,29.65,17,6,29,0.07
2013-2-20,47.8,36.4,24.4,16.0,7.6,-5.1,60,33,11,29.89,29.82,16,6,22,0.00
2013-2-22,41.2,41.2,41.2,40.9,40.9,40.9,99,99,99,29.85,29.85,1,1,2,0.00
2013-2-23,45.3,45.3,45.3,45.1,45.1,45.1,99,99,99,29.71,29.71,2,2,4,0.00
2013-2-26,39.9,38.8,36.3,39.7,38.6,36.1,99,99,99,29.61,29.39,4,2,8,0.48
2013-2-27,39.9,39.1,38.7,38.1,38.0,37.8,98,96,93,29.56,29.56,4,2,10,0.02
2013-2-28,36.0,33.8,31.6,30.6,26.7,24.4,85,75,68,29.68,29.50,17,7,17,0.02